createdAt,value
2019-03-06T00:00:52.802Z,3.02
2019-03-06T00:02:28.044Z,3.10
2019-03-06T00:04:02.842Z,3.25
2019-03-06T00:05:39.298Z,4.08
2019-03-06T00:07:14.175Z,3.42
2019-03-06T00:08:49.028Z,3.42
2019-03-06T00:10:27.084Z,3.10
2019-03-06T00:12:01.953Z,3.92
2019-03-06T00:13:36.751Z,3.83
2019-03-06T00:15:11.890Z,3.00
2019-03-06T00:16:46.790Z,3.75
2019-03-06T00:18:21.592Z,3.30
2019-03-06T00:19:56.708Z,3.52
2019-03-06T00:21:31.890Z,3.65
2019-03-06T00:23:07.020Z,3.75
2019-03-06T00:24:41.495Z,3.70
2019-03-06T00:26:15.917Z,3.60
2019-03-06T00:27:50.469Z,3.42
2019-03-06T00:29:25.131Z,3.40
2019-03-06T00:31:00.145Z,3.85
2019-03-06T00:32:34.705Z,3.47
2019-03-06T00:34:09.239Z,4.28
2019-03-06T00:35:46.118Z,3.92
2019-03-06T00:37:20.780Z,3.67
2019-03-06T00:38:55.244Z,3.40
2019-03-06T00:40:44.371Z,3.50
2019-03-06T00:42:18.811Z,3.80
2019-03-06T00:43:53.423Z,3.12
2019-03-06T00:45:27.854Z,3.80
2019-03-06T00:47:02.836Z,3.58
2019-03-06T00:48:37.279Z,3.77
2019-03-06T00:50:11.812Z,3.42
2019-03-06T00:51:46.211Z,3.70
2019-03-06T00:53:20.947Z,3.30
2019-03-06T00:54:55.818Z,3.60
2019-03-06T00:56:30.185Z,3.70
2019-03-06T00:58:05.214Z,3.42
2019-03-06T00:59:39.955Z,3.98
2019-03-06T01:01:14.548Z,3.60
2019-03-06T01:02:49.214Z,3.90
2019-03-06T01:04:23.602Z,4.20
2019-03-06T01:05:58.274Z,4.12
2019-03-06T01:07:33.070Z,4.35
2019-03-06T01:09:07.709Z,4.25
2019-03-06T01:10:42.155Z,4.25
2019-03-06T01:12:16.927Z,4.65
2019-03-06T01:13:51.751Z,4.55
2019-03-06T01:15:26.471Z,4.30
2019-03-06T01:17:00.986Z,4.60
2019-03-06T01:18:35.704Z,5.20
2019-03-06T01:20:10.526Z,4.60
2019-03-06T01:21:45.255Z,4.70
2019-03-06T01:23:20.409Z,4.67
2019-03-06T01:24:55.951Z,4.08
2019-03-06T01:26:30.943Z,4.22
2019-03-06T01:28:06.114Z,4.60
2019-03-06T01:29:41.198Z,4.35
2019-03-06T01:31:15.638Z,4.60
2019-03-06T01:32:53.410Z,4.45
2019-03-06T01:34:46.262Z,5.30
2019-03-06T01:36:40.401Z,5.17
2019-03-06T01:38:36.969Z,4.95
2019-03-06T01:40:33.648Z,4.65
2019-03-06T01:42:29.514Z,5.30
2019-03-06T01:44:11.711Z,5.37
2019-03-06T01:45:46.545Z,5.35
2019-03-06T01:47:21.559Z,5.78
2019-03-06T01:48:56.601Z,5.60
2019-03-06T01:50:31.313Z,5.65
2019-03-06T01:52:05.782Z,5.53
2019-03-06T01:53:40.377Z,5.70
2019-03-06T01:55:16.370Z,5.95
2019-03-06T01:56:51.272Z,5.72
2019-03-06T01:58:26.336Z,6.00
2019-03-06T02:00:01.415Z,6.92
2019-03-06T02:01:36.285Z,6.72
2019-03-06T02:03:11.273Z,5.95
2019-03-06T02:04:46.066Z,7.92
2019-03-06T02:06:21.186Z,6.67
2019-03-06T02:07:55.983Z,6.78
2019-03-06T02:09:31.539Z,6.45
2019-03-06T02:11:06.826Z,7.33
2019-03-06T02:12:42.253Z,8.85
2019-03-06T02:14:17.214Z,8.13
2019-03-06T02:15:52.145Z,6.75
2019-03-06T02:17:27.315Z,7.53
2019-03-06T02:19:03.456Z,6.80
2019-03-06T02:20:38.512Z,8.20
2019-03-06T02:22:13.575Z,8.28
2019-03-06T02:23:48.408Z,8.25
2019-03-06T02:25:23.208Z,9.08
2019-03-06T02:26:58.275Z,8.93
2019-03-06T02:28:33.328Z,8.80
2019-03-06T02:30:13.333Z,7.90
2019-03-06T02:31:48.135Z,7.65
2019-03-06T02:33:22.962Z,8.93
2019-03-06T02:34:57.757Z,7.95
2019-03-06T02:36:32.595Z,7.95
2019-03-06T02:38:07.552Z,7.10
2019-03-06T02:39:42.643Z,7.83
2019-03-06T02:41:17.451Z,7.95
2019-03-06T02:42:52.524Z,7.90
2019-03-06T02:44:27.318Z,7.22
2019-03-06T02:46:02.201Z,8.18
2019-03-06T02:47:36.999Z,8.48
2019-03-06T02:49:11.823Z,8.48
2019-03-06T02:50:46.620Z,9.30
2019-03-06T02:52:21.680Z,8.10
2019-03-06T02:53:56.515Z,8.78
2019-03-06T02:55:31.313Z,10.88
2019-03-06T02:57:06.191Z,10.28
2019-03-06T02:58:47.272Z,10.32
2019-03-06T03:00:46.006Z,9.50
2019-03-06T03:02:31.849Z,10.68
2019-03-06T03:04:37.742Z,11.68
2019-03-06T03:06:19.546Z,12.45
2019-03-06T03:07:54.860Z,11.12
2019-03-06T03:09:30.009Z,11.68
2019-03-06T03:11:05.176Z,11.43
2019-03-06T03:12:40.265Z,11.10
2019-03-06T03:14:15.135Z,11.05
2019-03-06T03:15:50.164Z,10.53
2019-03-06T03:17:24.975Z,10.03
2019-03-06T03:18:59.781Z,10.18
2019-03-06T03:20:34.880Z,9.18
2019-03-06T03:22:09.956Z,10.28
2019-03-06T03:23:44.755Z,10.40
2019-03-06T03:25:19.888Z,10.93
2019-03-06T03:26:55.200Z,9.85
2019-03-06T03:28:30.005Z,10.53
2019-03-06T03:30:07.669Z,10.23
2019-03-06T03:31:42.504Z,10.28
2019-03-06T03:33:17.323Z,10.10
2019-03-06T03:34:52.476Z,9.43
2019-03-06T03:36:27.292Z,10.35
2019-03-06T03:38:02.353Z,10.40
2019-03-06T03:39:37.391Z,10.13
2019-03-06T03:41:12.447Z,10.15
2019-03-06T03:42:47.263Z,9.80
2019-03-06T03:44:22.355Z,10.88
2019-03-06T03:45:57.164Z,9.90
2019-03-06T03:47:32.221Z,12.00
2019-03-06T03:49:07.011Z,10.65
2019-03-06T03:50:41.883Z,9.45
2019-03-06T03:52:16.976Z,9.35
2019-03-06T03:53:52.034Z,8.90
2019-03-06T03:55:26.891Z,8.60
2019-03-06T03:57:01.714Z,8.43
2019-03-06T03:58:36.808Z,8.93
2019-03-06T04:00:14.059Z,8.18
2019-03-06T04:01:49.107Z,9.20
2019-03-06T04:03:24.202Z,9.13
2019-03-06T04:04:59.071Z,9.28
2019-03-06T04:06:34.565Z,8.73
2019-03-06T04:08:09.923Z,8.55
2019-03-06T04:09:44.704Z,7.92
2019-03-06T04:11:20.032Z,8.98
2019-03-06T04:12:54.816Z,7.50
2019-03-06T04:14:29.786Z,8.85
2019-03-06T04:16:04.672Z,8.18
2019-03-06T04:17:39.766Z,9.85
2019-03-06T04:19:14.558Z,9.55
2019-03-06T04:20:49.424Z,8.30
2019-03-06T04:22:24.590Z,8.70
2019-03-06T04:23:59.674Z,8.28
2019-03-06T04:25:34.793Z,9.88
2019-03-06T04:27:09.580Z,9.15
2019-03-06T04:28:44.869Z,9.70
2019-03-06T04:30:20.178Z,9.63
2019-03-06T04:31:54.966Z,9.65
2019-03-06T04:33:29.753Z,8.00
2019-03-06T04:35:04.721Z,9.30
2019-03-06T04:36:39.805Z,9.08
2019-03-06T04:38:15.233Z,10.43
2019-03-06T04:39:50.275Z,9.58
2019-03-06T04:41:25.338Z,9.58
2019-03-06T04:43:00.406Z,9.48
2019-03-06T04:44:35.203Z,10.60
2019-03-06T04:46:10.333Z,10.13
2019-03-06T04:47:44.733Z,9.03
2019-03-06T04:49:19.185Z,10.30
2019-03-06T04:50:53.977Z,9.68
2019-03-06T04:52:29.046Z,9.30
2019-03-06T04:54:04.022Z,10.10
2019-03-06T04:55:38.470Z,10.30
2019-03-06T04:57:12.865Z,10.10
2019-03-06T04:58:47.501Z,11.57
2019-03-06T05:00:22.003Z,11.50
2019-03-06T05:01:56.910Z,10.58
2019-03-06T05:03:31.372Z,12.68
2019-03-06T05:05:05.926Z,11.80
2019-03-06T05:06:40.380Z,12.58
2019-03-06T05:08:14.865Z,10.28
2019-03-06T05:09:49.237Z,10.30
2019-03-06T05:11:23.862Z,10.98
2019-03-06T05:12:58.229Z,10.82
2019-03-06T05:14:32.627Z,10.00
2019-03-06T05:16:07.161Z,10.95
2019-03-06T05:17:55.951Z,11.60
2019-03-06T05:19:30.345Z,10.45
2019-03-06T05:21:04.976Z,11.03
2019-03-06T05:22:39.506Z,11.78
2019-03-06T05:24:13.902Z,12.68
2019-03-06T05:25:48.265Z,11.35
2019-03-06T05:27:22.923Z,11.57
2019-03-06T05:28:57.447Z,11.15
2019-03-06T05:30:31.881Z,12.25
2019-03-06T05:32:28.159Z,12.03
2019-03-06T05:34:02.551Z,12.45
2019-03-06T05:35:56.286Z,10.90
2019-03-06T05:38:03.583Z,10.90
2019-03-06T05:39:38.259Z,10.65
2019-03-06T05:41:13.375Z,10.50
2019-03-06T05:42:48.537Z,11.43
2019-03-06T05:44:23.334Z,10.88
2019-03-06T05:45:58.419Z,11.75
2019-03-06T05:47:33.488Z,11.20
2019-03-06T05:49:08.509Z,10.50
2019-03-06T05:50:43.326Z,10.80
2019-03-06T05:52:18.110Z,11.03
2019-03-06T05:53:53.084Z,10.50
2019-03-06T05:55:27.872Z,11.05
2019-03-06T05:57:02.679Z,11.65
2019-03-06T05:58:37.466Z,12.47
2019-03-06T06:00:12.922Z,12.40
2019-03-06T06:01:48.510Z,13.05
2019-03-06T06:03:23.360Z,14.00
2019-03-06T06:04:58.404Z,13.15
2019-03-06T06:06:33.297Z,14.65
2019-03-06T06:08:08.453Z,14.65
2019-03-06T06:09:43.267Z,14.30
2019-03-06T06:11:18.062Z,15.03
2019-03-06T06:12:52.935Z,15.38
2019-03-06T06:14:27.761Z,16.42
2019-03-06T06:16:02.628Z,14.80
2019-03-06T06:17:37.992Z,14.13
2019-03-06T06:19:13.029Z,12.95
2019-03-06T06:20:50.421Z,12.37
2019-03-06T06:22:42.826Z,13.32
2019-03-06T06:24:23.514Z,12.95
2019-03-06T06:25:58.594Z,14.58
2019-03-06T06:27:33.677Z,14.75
2019-03-06T06:29:08.699Z,14.18
2019-03-06T06:30:43.871Z,13.20
2019-03-06T06:32:18.915Z,13.60
2019-03-06T06:33:53.735Z,13.00
2019-03-06T06:35:28.600Z,12.75
2019-03-06T06:37:03.385Z,12.95
2019-03-06T06:38:38.443Z,12.00
2019-03-06T06:40:13.719Z,12.53
2019-03-06T06:41:48.507Z,11.73
2019-03-06T06:43:23.316Z,11.57
2019-03-06T06:44:58.626Z,11.12
2019-03-06T06:46:33.449Z,12.33
2019-03-06T06:48:17.552Z,11.53
2019-03-06T06:49:52.627Z,11.60
2019-03-06T06:52:12.601Z,11.75
2019-03-06T06:54:07.038Z,10.50
2019-03-06T06:56:38.697Z,11.18
2019-03-06T06:58:58.920Z,11.10
2019-03-06T07:01:12.820Z,10.38
2019-03-06T07:03:28.087Z,10.93
2019-03-06T07:05:19.512Z,11.22
2019-03-06T07:07:07.234Z,11.30
2019-03-06T07:09:01.271Z,11.22
2019-03-06T07:10:37.845Z,10.98
2019-03-06T07:12:18.118Z,11.73
2019-03-06T07:14:11.636Z,11.65
2019-03-06T07:16:06.789Z,10.98
2019-03-06T07:18:19.168Z,10.93
2019-03-06T07:20:05.505Z,10.70
2019-03-06T07:21:57.730Z,10.98
2019-03-06T07:23:49.112Z,11.60
2019-03-06T07:25:42.166Z,11.60
2019-03-06T07:27:42.043Z,11.45
2019-03-06T07:29:44.479Z,11.05
2019-03-06T07:31:26.397Z,11.25
2019-03-06T07:33:14.548Z,11.33
2019-03-06T07:35:53.402Z,11.05
2019-03-06T07:37:42.753Z,11.18
2019-03-06T07:39:28.317Z,11.50
2019-03-06T07:41:25.000Z,11.35
2019-03-06T07:43:13.341Z,9.95
2019-03-06T07:45:42.774Z,10.88
2019-03-06T07:47:49.087Z,10.28
2019-03-06T07:49:45.045Z,11.22
2019-03-06T07:51:33.210Z,10.25
2019-03-06T07:53:59.221Z,11.25
2019-03-06T07:55:46.871Z,11.28
2019-03-06T07:57:25.691Z,11.20
2019-03-06T07:59:00.828Z,11.65
2019-03-06T08:00:35.631Z,11.12
2019-03-06T08:02:15.357Z,11.18
2019-03-06T08:04:02.030Z,11.75
2019-03-06T08:05:36.886Z,11.60
2019-03-06T08:07:15.914Z,11.38
2019-03-06T08:08:50.834Z,10.82
2019-03-06T08:10:28.541Z,11.35
2019-03-06T08:12:15.966Z,11.12
2019-03-06T08:14:00.318Z,11.00
2019-03-06T08:15:56.333Z,10.70
2019-03-06T08:17:51.437Z,11.25
2019-03-06T08:19:44.639Z,10.48
2019-03-06T08:21:32.600Z,10.13
2019-03-06T08:23:29.613Z,10.75
2019-03-06T08:25:28.693Z,11.18
2019-03-06T08:27:04.828Z,11.43
2019-03-06T08:28:40.716Z,10.78
2019-03-06T08:30:16.395Z,10.58
2019-03-06T08:31:57.037Z,9.60
2019-03-06T08:33:31.930Z,9.75
2019-03-06T08:35:09.799Z,9.23
2019-03-06T08:36:44.946Z,8.90
2019-03-06T08:38:19.994Z,8.28
2019-03-06T08:39:55.995Z,8.15
2019-03-06T08:41:31.162Z,8.78
2019-03-06T08:43:06.323Z,8.80
2019-03-06T08:44:41.777Z,8.60
2019-03-06T08:46:35.635Z,8.10
2019-03-06T08:48:32.734Z,7.45
2019-03-06T08:50:17.814Z,8.05
2019-03-06T08:52:05.590Z,7.10
2019-03-06T08:53:48.352Z,6.53
2019-03-06T08:55:54.272Z,6.37
2019-03-06T08:58:03.202Z,6.77
2019-03-06T08:59:54.291Z,5.87
2019-03-06T09:02:01.820Z,6.30
2019-03-06T09:03:54.942Z,5.80
2019-03-06T09:05:40.897Z,6.13
2019-03-06T09:07:47.033Z,5.53
2019-03-06T09:09:41.036Z,5.60
2019-03-06T09:11:28.564Z,5.23
2019-03-06T09:13:22.375Z,5.43
2019-03-06T09:15:09.631Z,5.43
2019-03-06T09:17:09.761Z,5.10
2019-03-06T09:19:02.326Z,5.37
2019-03-06T09:21:01.918Z,4.77
2019-03-06T09:22:46.727Z,5.03
2019-03-06T09:24:30.638Z,4.87
2019-03-06T09:26:14.802Z,5.40
2019-03-06T09:28:07.629Z,4.57
2019-03-06T09:30:02.946Z,4.63
2019-03-06T09:31:55.490Z,4.67
2019-03-06T09:33:40.601Z,5.20
2019-03-06T09:35:23.962Z,4.50
2019-03-06T09:37:13.948Z,4.80
2019-03-06T09:39:05.610Z,4.77
2019-03-06T09:40:47.787Z,4.60
2019-03-06T09:42:50.852Z,4.57
2019-03-06T09:44:32.552Z,4.63
2019-03-06T09:46:18.502Z,4.23
2019-03-06T09:48:00.837Z,3.93
2019-03-06T09:49:47.089Z,4.30
2019-03-06T09:51:30.980Z,3.83
2019-03-06T09:53:19.583Z,4.00
2019-03-06T09:55:09.992Z,4.40
2019-03-06T09:57:02.616Z,4.40
2019-03-06T09:58:46.800Z,4.27
2019-03-06T10:00:39.462Z,4.70
2019-03-06T10:02:20.491Z,4.53
2019-03-06T10:04:16.869Z,4.23
2019-03-06T10:06:10.666Z,4.70
2019-03-06T10:07:50.446Z,4.93
2019-03-06T10:09:33.635Z,4.27
2019-03-06T10:11:22.929Z,4.30
2019-03-06T10:13:16.680Z,4.37
2019-03-06T10:15:28.610Z,4.23
2019-03-06T10:17:11.008Z,3.43
2019-03-06T10:18:59.730Z,4.10
2019-03-06T10:20:34.197Z,4.07
2019-03-06T10:22:09.031Z,4.10
2019-03-06T10:23:43.706Z,4.70
2019-03-06T10:25:18.669Z,4.30
2019-03-06T10:26:54.090Z,4.27
2019-03-06T10:28:29.223Z,4.30
2019-03-06T10:30:28.756Z,3.83
2019-03-06T10:32:03.626Z,4.00
2019-03-06T10:33:41.328Z,4.20
2019-03-06T10:35:17.134Z,3.90
2019-03-06T10:36:52.579Z,3.83
2019-03-06T10:38:27.432Z,3.70
2019-03-06T10:40:02.219Z,3.03
2019-03-06T10:41:37.276Z,3.00
2019-03-06T10:43:12.149Z,3.80
2019-03-06T10:44:47.176Z,3.50
2019-03-06T10:46:22.650Z,3.83
2019-03-06T10:47:57.544Z,3.97
2019-03-06T10:49:32.655Z,4.30
2019-03-06T10:51:07.889Z,4.50
2019-03-06T10:52:43.132Z,4.40
2019-03-06T10:54:17.992Z,4.50
2019-03-06T10:55:52.934Z,4.70
2019-03-06T10:57:28.067Z,5.10
2019-03-06T10:59:03.010Z,4.97
2019-03-06T11:00:44.536Z,5.03
2019-03-06T11:02:19.413Z,5.43
2019-03-06T11:04:21.904Z,6.77
2019-03-06T11:05:56.369Z,7.17
2019-03-06T11:07:31.587Z,7.30
2019-03-06T11:09:10.456Z,7.63
2019-03-06T11:10:44.954Z,8.03
2019-03-06T11:12:19.416Z,8.10
2019-03-06T11:13:53.867Z,9.57
2019-03-06T11:15:29.462Z,10.03
2019-03-06T11:17:04.234Z,9.87
2019-03-06T11:18:38.964Z,10.03
2019-03-06T11:20:17.826Z,10.53
2019-03-06T11:21:52.778Z,10.20
2019-03-06T11:23:27.618Z,10.70
2019-03-06T11:25:02.951Z,11.07
2019-03-06T11:26:39.722Z,12.03
2019-03-06T11:28:15.558Z,12.67
2019-03-06T11:29:50.437Z,14.60
2019-03-06T11:31:28.382Z,13.87
2019-03-06T11:33:03.516Z,15.03
2019-03-06T11:34:38.741Z,14.63
2019-03-06T11:36:13.634Z,14.63
2019-03-06T11:37:48.332Z,14.50
2019-03-06T11:39:23.215Z,13.77
2019-03-06T11:40:58.751Z,13.57
2019-03-06T11:42:33.400Z,14.17
2019-03-06T11:44:08.299Z,14.93
2019-03-06T11:45:44.552Z,14.57
2019-03-06T11:47:20.014Z,14.57
2019-03-06T11:48:55.499Z,14.63
2019-03-06T11:50:31.009Z,14.07
2019-03-06T11:52:07.930Z,14.03
2019-03-06T11:53:43.264Z,13.40
2019-03-06T11:55:19.216Z,14.07
2019-03-06T11:56:55.303Z,13.43
2019-03-06T11:58:30.573Z,12.60
2019-03-06T12:00:08.613Z,11.70
2019-03-06T12:01:47.888Z,11.00
2019-03-06T12:03:21.784Z,11.67
2019-03-06T12:04:56.858Z,11.40
2019-03-06T12:06:32.107Z,10.63
2019-03-06T12:08:09.713Z,10.37
2019-03-06T12:09:44.421Z,9.87
2019-03-06T12:11:19.021Z,10.30
2019-03-06T12:12:53.934Z,9.13
2019-03-06T12:14:28.892Z,10.70
2019-03-06T12:16:03.495Z,11.13
2019-03-06T12:17:38.015Z,11.43
2019-03-06T12:19:12.938Z,10.87
2019-03-06T12:20:47.573Z,11.00
2019-03-06T12:22:22.097Z,11.03
2019-03-06T12:23:56.604Z,11.87
2019-03-06T12:25:31.882Z,11.80
2019-03-06T12:27:06.522Z,11.33
2019-03-06T12:28:41.144Z,12.00
2019-03-06T12:30:16.345Z,10.50
2019-03-06T12:31:51.269Z,10.70
2019-03-06T12:33:27.502Z,10.20
2019-03-06T12:35:02.248Z,9.67
2019-03-06T12:36:36.825Z,9.30
2019-03-06T12:38:11.741Z,9.27
2019-03-06T12:39:47.059Z,8.40
2019-03-06T12:41:22.128Z,8.57
2019-03-06T12:42:57.451Z,8.30
2019-03-06T12:44:32.073Z,7.13
2019-03-06T12:46:23.612Z,7.20
2019-03-06T12:47:55.692Z,7.23
2019-03-06T12:49:31.027Z,7.10
2019-03-06T12:51:05.527Z,6.77
2019-03-06T12:52:40.218Z,6.47
2019-03-06T12:54:14.975Z,6.53
2019-03-06T12:55:49.829Z,6.27
2019-03-06T12:57:24.529Z,5.80
2019-03-06T12:58:58.986Z,5.53
2019-03-06T13:00:33.773Z,5.53
2019-03-06T13:02:08.318Z,5.07
2019-03-06T13:03:42.852Z,5.37
2019-03-06T13:05:18.139Z,4.93
2019-03-06T13:06:52.993Z,5.27
2019-03-06T13:08:27.445Z,4.63
2019-03-06T13:10:02.502Z,3.97
2019-03-06T13:11:37.023Z,4.40
2019-03-06T13:13:12.178Z,3.73
2019-03-06T13:14:46.850Z,3.77
2019-03-06T13:16:21.705Z,3.63
2019-03-06T13:17:56.812Z,3.63
2019-03-06T13:19:31.485Z,3.57
2019-03-06T13:21:08.166Z,3.70
2019-03-06T13:22:43.515Z,3.73
2019-03-06T13:24:18.052Z,3.77
2019-03-06T13:25:52.788Z,3.20
2019-03-06T13:27:27.226Z,3.23
2019-03-06T13:29:01.982Z,3.40
2019-03-06T13:30:36.913Z,3.60
2019-03-06T13:32:12.150Z,3.27
2019-03-06T13:33:55.997Z,3.40
2019-03-06T13:35:30.862Z,3.20
2019-03-06T13:37:05.297Z,3.73
2019-03-06T13:38:40.122Z,3.50
2019-03-06T13:40:18.612Z,3.53
2019-03-06T13:41:50.752Z,3.37
2019-03-06T13:43:25.202Z,3.33
2019-03-06T13:44:59.673Z,3.87
2019-03-06T13:46:34.191Z,3.33
2019-03-06T13:48:08.725Z,3.63
2019-03-06T13:49:43.892Z,3.83
2019-03-06T13:51:18.698Z,3.17
2019-03-06T13:52:53.629Z,3.50
2019-03-06T13:54:28.177Z,3.53
2019-03-06T13:56:02.662Z,3.60
2019-03-06T13:57:37.153Z,3.40
2019-03-06T13:59:11.688Z,3.60
2019-03-06T14:00:46.567Z,3.03
2019-03-06T14:02:21.145Z,3.50
2019-03-06T14:03:56.077Z,3.47
2019-03-06T14:05:30.630Z,3.50
2019-03-06T14:07:05.658Z,3.73
2019-03-06T14:08:41.042Z,3.67
2019-03-06T14:10:20.268Z,3.77
2019-03-06T14:11:55.400Z,3.37
2019-03-06T14:13:30.266Z,3.77
2019-03-06T14:15:05.855Z,3.20
2019-03-06T14:16:40.642Z,3.40
2019-03-06T14:18:16.584Z,3.20
2019-03-06T14:19:51.637Z,3.30
2019-03-06T14:21:26.540Z,3.50
2019-03-06T14:23:01.323Z,3.13
2019-03-06T14:24:36.727Z,3.10
2019-03-06T14:26:12.071Z,3.40
2019-03-06T14:27:47.345Z,3.47
2019-03-06T14:29:22.395Z,3.00
2019-03-06T14:30:57.386Z,3.20
2019-03-06T14:32:32.460Z,3.00
2019-03-06T14:34:07.242Z,3.07
2019-03-06T14:35:42.193Z,3.30
2019-03-06T14:37:17.405Z,2.97
2019-03-06T14:38:52.558Z,3.50
2019-03-06T14:40:29.934Z,3.37
2019-03-06T14:42:05.155Z,3.17
2019-03-06T14:43:40.014Z,3.07
2019-03-06T14:45:15.887Z,2.70
2019-03-06T14:46:50.889Z,2.60
2019-03-06T14:48:26.373Z,2.87
2019-03-06T14:50:01.196Z,3.00
2019-03-06T14:51:35.984Z,2.80
2019-03-06T14:53:11.033Z,2.67
2019-03-06T14:54:46.284Z,2.40
2019-03-06T14:56:26.037Z,2.90
2019-03-06T14:58:00.831Z,2.83
2019-03-06T14:59:35.625Z,2.63
2019-03-06T15:01:11.220Z,2.83
2019-03-06T15:02:46.225Z,2.93
2019-03-06T15:04:21.264Z,3.07
2019-03-06T15:05:56.462Z,2.40
2019-03-06T15:07:31.348Z,2.63
2019-03-06T15:09:22.347Z,2.70
2019-03-06T15:10:57.536Z,2.37
2019-03-06T15:12:32.716Z,2.63
2019-03-06T15:14:07.566Z,2.67
2019-03-06T15:15:42.510Z,2.50
2019-03-06T15:17:17.634Z,2.47
2019-03-06T15:18:52.738Z,2.63
2019-03-06T15:20:27.827Z,2.60
2019-03-06T15:22:02.970Z,2.13
2019-03-06T15:23:37.441Z,2.90
2019-03-06T15:25:14.674Z,2.40
2019-03-06T15:26:49.217Z,2.73
2019-03-06T15:28:23.978Z,2.93
2019-03-06T15:29:58.466Z,3.27
2019-03-06T15:31:33.334Z,3.10
2019-03-06T15:33:08.224Z,3.20
2019-03-06T15:34:43.348Z,2.73
2019-03-06T15:36:18.505Z,2.83
2019-03-06T15:37:53.619Z,2.87
2019-03-06T15:39:31.426Z,2.60
2019-03-06T15:41:06.487Z,2.67
2019-03-06T15:42:41.293Z,2.80
2019-03-06T15:44:16.181Z,3.30
2019-03-06T15:45:52.093Z,3.47
2019-03-06T15:47:33.667Z,3.17
2019-03-06T15:49:04.456Z,3.40
2019-03-06T15:50:40.103Z,3.27
2019-03-06T15:52:15.110Z,3.47
2019-03-06T15:53:50.481Z,3.40
2019-03-06T15:55:29.082Z,3.40
2019-03-06T15:57:04.191Z,3.67
2019-03-06T15:58:39.045Z,3.20
2019-03-06T16:00:30.798Z,3.60
2019-03-06T16:02:06.619Z,3.60
2019-03-06T16:03:41.661Z,3.70
2019-03-06T16:05:17.205Z,3.83
2019-03-06T16:06:54.244Z,3.43
2019-03-06T16:08:28.630Z,3.60
2019-03-06T16:10:03.418Z,3.53
2019-03-06T16:11:38.093Z,3.50
2019-03-06T16:13:12.804Z,3.33
2019-03-06T16:14:50.168Z,3.57
2019-03-06T16:16:24.967Z,3.67
2019-03-06T16:18:01.467Z,3.40
2019-03-06T16:19:36.187Z,3.17
2019-03-06T16:21:11.105Z,3.57
2019-03-06T16:22:46.590Z,3.33
2019-03-06T16:24:21.659Z,3.63
2019-03-06T16:25:56.318Z,3.27
2019-03-06T16:27:31.248Z,3.37
2019-03-06T16:29:06.094Z,3.90
2019-03-06T16:30:41.376Z,3.90
2019-03-06T16:32:16.269Z,3.23
2019-03-06T16:33:51.287Z,3.90
2019-03-06T16:35:26.065Z,4.07
2019-03-06T16:37:00.855Z,3.40
2019-03-06T16:38:35.371Z,4.07
2019-03-06T16:40:15.204Z,3.40
2019-03-06T16:41:49.897Z,3.52
2019-03-06T16:43:24.607Z,4.87
2019-03-06T16:44:59.115Z,4.73
2019-03-06T16:46:33.990Z,4.03
2019-03-06T16:48:08.833Z,4.07
2019-03-06T16:49:43.322Z,4.03
2019-03-06T16:51:17.822Z,4.60
2019-03-06T16:52:52.616Z,3.00
2019-03-06T16:54:27.253Z,2.95
2019-03-06T16:56:01.952Z,2.97
2019-03-06T16:57:36.658Z,3.65
2019-03-06T16:59:11.292Z,3.57
2019-03-06T17:00:46.031Z,3.30
2019-03-06T17:02:20.616Z,3.70
2019-03-06T17:03:55.446Z,3.83
2019-03-06T17:05:30.439Z,3.40
2019-03-06T17:07:05.294Z,3.87
2019-03-06T17:08:40.102Z,3.70
2019-03-06T17:10:14.827Z,3.37
2019-03-06T17:11:49.597Z,3.98
2019-03-06T17:13:24.126Z,3.97
2019-03-06T17:14:58.490Z,3.77
2019-03-06T17:16:33.582Z,3.90
2019-03-06T17:18:08.350Z,3.50
2019-03-06T17:19:42.833Z,3.83
2019-03-06T17:21:17.719Z,3.85
2019-03-06T17:22:52.693Z,3.97
2019-03-06T17:24:27.488Z,3.70
2019-03-06T17:26:02.338Z,4.03
2019-03-06T17:27:37.178Z,3.80
2019-03-06T17:29:13.762Z,3.60
2019-03-06T17:30:48.626Z,3.67
2019-03-06T17:32:23.329Z,3.93
2019-03-06T17:33:57.861Z,3.87
2019-03-06T17:35:32.975Z,3.80
2019-03-06T17:37:07.978Z,3.80
2019-03-06T17:38:42.592Z,4.10
2019-03-06T17:40:17.315Z,3.73
2019-03-06T17:41:52.189Z,3.60
2019-03-06T17:43:26.653Z,3.83
2019-03-06T17:45:01.421Z,3.67
2019-03-06T17:46:36.157Z,3.65
2019-03-06T17:48:11.000Z,4.12
2019-03-06T17:49:45.501Z,3.90
2019-03-06T17:51:20.024Z,4.03
2019-03-06T17:52:55.162Z,3.53
2019-03-06T17:54:30.186Z,3.67
2019-03-06T17:56:04.800Z,4.08
2019-03-06T17:57:39.417Z,3.40
2019-03-06T17:59:14.464Z,4.17
2019-03-06T18:00:51.657Z,3.67
2019-03-06T18:02:26.622Z,3.80
2019-03-06T18:04:12.664Z,4.10
2019-03-06T18:05:47.382Z,3.90
2019-03-06T18:07:22.562Z,4.37
2019-03-06T18:08:57.894Z,4.23
2019-03-06T18:10:32.898Z,3.80
2019-03-06T18:12:07.490Z,4.43
2019-03-06T18:13:42.181Z,4.22
2019-03-06T18:15:17.193Z,4.33
2019-03-06T18:16:52.065Z,4.20
2019-03-06T18:18:26.521Z,4.37
2019-03-06T18:20:01.075Z,4.33
2019-03-06T18:21:35.778Z,4.30
2019-03-06T18:23:10.894Z,3.95
2019-03-06T18:24:45.606Z,4.12
2019-03-06T18:26:20.366Z,4.30
2019-03-06T18:27:55.162Z,4.65
2019-03-06T18:29:30.218Z,4.40
2019-03-06T18:31:04.729Z,4.70
2019-03-06T18:32:39.644Z,4.92
2019-03-06T18:34:14.568Z,4.73
2019-03-06T18:35:49.337Z,5.08
2019-03-06T18:37:23.965Z,4.60
2019-03-06T18:38:59.030Z,4.72
2019-03-06T18:40:33.911Z,4.40
2019-03-06T18:42:08.631Z,5.55
2019-03-06T18:43:43.554Z,4.78
2019-03-06T18:45:18.710Z,4.80
2019-03-06T18:46:53.183Z,4.90
2019-03-06T18:48:27.968Z,5.20
2019-03-06T18:50:02.989Z,4.97
2019-03-06T18:51:37.438Z,5.05
2019-03-06T18:53:12.068Z,4.77
2019-03-06T18:54:46.976Z,4.58
2019-03-06T18:56:21.959Z,5.00
2019-03-06T18:57:56.531Z,5.00
2019-03-06T18:59:31.328Z,5.00
2019-03-06T19:01:05.834Z,5.17
2019-03-06T19:02:40.272Z,5.13
2019-03-06T19:04:14.993Z,5.43
2019-03-06T19:05:49.542Z,4.67
2019-03-06T19:07:24.234Z,5.03
2019-03-06T19:08:58.950Z,4.97
2019-03-06T19:10:33.506Z,5.10
2019-03-06T19:12:08.053Z,4.80
2019-03-06T19:13:42.818Z,4.97
2019-03-06T19:15:18.541Z,4.95
2019-03-06T19:16:53.275Z,5.22
2019-03-06T19:18:27.885Z,5.35
2019-03-06T19:20:02.612Z,5.95
2019-03-06T19:21:37.508Z,5.27
2019-03-06T19:23:11.946Z,5.17
2019-03-06T19:24:46.756Z,5.30
2019-03-06T19:26:21.291Z,5.00
2019-03-06T19:27:55.683Z,5.22
2019-03-06T19:29:30.128Z,4.90
2019-03-06T19:31:05.002Z,5.47
2019-03-06T19:32:39.722Z,5.00
2019-03-06T19:34:14.483Z,5.40
2019-03-06T19:35:49.593Z,5.17
2019-03-06T19:37:24.335Z,5.25
2019-03-06T19:38:59.230Z,5.53
2019-03-06T19:40:33.914Z,5.03
2019-03-06T19:42:08.381Z,5.55
2019-03-06T19:43:43.412Z,5.42
2019-03-06T19:45:18.555Z,5.62
2019-03-06T19:46:53.255Z,5.55
2019-03-06T19:48:28.087Z,6.10
2019-03-06T19:50:02.642Z,5.83
2019-03-06T19:51:37.343Z,5.58
2019-03-06T19:53:12.232Z,5.30
2019-03-06T19:54:48.921Z,5.55
2019-03-06T19:56:23.742Z,6.10
2019-03-06T19:58:00.271Z,5.70
2019-03-06T19:59:34.727Z,5.60
2019-03-06T20:01:09.726Z,5.80
2019-03-06T20:02:44.280Z,5.40
2019-03-06T20:04:19.006Z,5.70
2019-03-06T20:05:53.723Z,6.30
2019-03-06T20:07:28.444Z,5.60
2019-03-06T20:09:04.574Z,5.97
2019-03-06T20:10:39.312Z,6.10
2019-03-06T20:12:13.838Z,6.20
2019-03-06T20:13:49.238Z,6.07
2019-03-06T20:15:23.783Z,6.07
2019-03-06T20:16:58.286Z,6.03
2019-03-06T20:18:33.023Z,6.20
2019-03-06T20:20:08.068Z,5.60
2019-03-06T20:21:43.030Z,5.67
2019-03-06T20:23:17.848Z,5.67
2019-03-06T20:24:52.414Z,5.90
2019-03-06T20:26:26.965Z,5.70
2019-03-06T20:28:01.525Z,5.80
2019-03-06T20:29:36.080Z,5.87
2019-03-06T20:31:10.618Z,6.22
2019-03-06T20:32:47.219Z,5.57
2019-03-06T20:34:21.799Z,5.97
2019-03-06T20:35:56.474Z,5.90
2019-03-06T20:37:31.105Z,5.93
2019-03-06T20:39:07.543Z,6.30
2019-03-06T20:40:42.251Z,5.92
2019-03-06T20:42:17.286Z,5.95
2019-03-06T20:43:51.984Z,6.00
2019-03-06T20:45:26.562Z,6.20
2019-03-06T20:47:01.037Z,5.93
2019-03-06T20:48:36.059Z,6.35
2019-03-06T20:50:10.967Z,6.30
2019-03-06T20:51:45.429Z,5.90
2019-03-06T20:53:19.933Z,6.62
2019-03-06T20:54:54.458Z,5.87
2019-03-06T20:56:28.925Z,6.20
2019-03-06T20:58:03.386Z,6.00
2019-03-06T20:59:38.132Z,6.33
2019-03-06T21:01:12.625Z,6.07
2019-03-06T21:02:47.454Z,6.27
2019-03-06T21:04:21.899Z,5.93
2019-03-06T21:05:56.358Z,6.10
2019-03-06T21:07:30.899Z,5.97
2019-03-06T21:09:06.630Z,5.80
2019-03-06T21:10:41.325Z,6.22
2019-03-06T21:12:16.182Z,6.12
2019-03-06T21:13:51.134Z,6.10
2019-03-06T21:15:26.139Z,6.37
2019-03-06T21:17:00.659Z,5.67
2019-03-06T21:18:35.425Z,6.37
2019-03-06T21:20:12.686Z,6.42
2019-03-06T21:21:47.173Z,6.33
2019-03-06T21:23:21.878Z,6.10
2019-03-06T21:24:56.339Z,5.90
2019-03-06T21:26:31.131Z,6.13
2019-03-06T21:28:07.380Z,5.83
2019-03-06T21:29:42.006Z,6.57
2019-03-06T21:31:16.558Z,5.93